Time;durP1;ratioP1;P1;durP2;ratioP2;P2;SDS_P1;SDS_P2;PMS_P1;PMS_P2;Temp;Humidity;BMP_temperature;BMP_pressure;BME280_temperature;BME280_humidity;BME280_pressure;Samples;Min_cycle;Max_cycle;Signal;HPM_P1;HPM_P2
2022/11/09 00:02:07;;;;;;;6.57;6.07;;;12.80;99.90;;;;;;5010832;28;20193;-85
2022/11/09 00:04:32;;;;;;;6.97;6.33;;;12.80;99.90;;;;;;5027231;28;20231;-86
2022/11/09 00:06:58;;;;;;;7.70;7.00;;;12.70;99.90;;;;;;5014593;28;20208;-86
2022/11/09 00:09:24;;;;;;;8.23;7.43;;;12.80;99.90;;;;;;5021194;28;20201;-88
2022/11/09 00:11:49;;;;;;;8.53;7.67;;;12.70;99.90;;;;;;5017600;28;20199;-86
2022/11/09 00:14:16;;;;;;;7.70;7.00;;;12.80;99.90;;;;;;5019366;28;20190;-87
2022/11/09 00:16:42;;;;;;;8.60;7.70;;;12.80;99.90;;;;;;5026776;28;20295;-87
2022/11/09 00:19:08;;;;;;;8.17;7.37;;;12.80;99.90;;;;;;5029269;28;20233;-84
2022/11/09 00:21:34;;;;;;;7.20;6.57;;;12.80;99.90;;;;;;5023203;28;20276;-85
2022/11/09 00:24:00;;;;;;;7.97;6.80;;;12.80;99.90;;;;;;5023158;28;20269;-86
2022/11/09 00:26:26;;;;;;;7.03;6.33;;;12.80;99.90;;;;;;5023136;28;20218;-84
2022/11/09 00:28:52;;;;;;;7.53;6.77;;;12.80;99.90;;;;;;5016779;28;20212;-84
2022/11/09 00:31:20;;;;;;;7.43;6.73;;;12.80;99.90;;;;;;5022787;28;20694;-85
2022/11/09 00:33:55;;;;;;;7.47;6.77;;;12.80;99.90;;;;;;5022926;28;20180;-86
2022/11/09 00:36:21;;;;;;;7.20;6.50;;;12.70;99.90;;;;;;5040106;28;20625;-86
2022/11/09 00:38:49;;;;;;;8.33;7.40;;;12.70;99.90;;;;;;5039465;28;20188;-85
2022/11/09 00:41:15;;;;;;;8.47;7.27;;;12.60;99.90;;;;;;5039172;28;20181;-85
2022/11/09 00:43:41;;;;;;;7.80;7.20;;;12.70;99.90;;;;;;5038433;28;20188;-86
2022/11/09 00:46:07;;;;;;;8.43;7.70;;;12.70;99.90;;;;;;5037896;28;20207;-85
2022/11/09 00:48:33;;;;;;;7.47;6.77;;;12.70;99.90;;;;;;5020687;28;20208;-85
2022/11/09 00:50:59;;;;;;;7.93;7.10;;;12.70;99.90;;;;;;5038999;28;20192;-85
2022/11/09 00:53:26;;;;;;;9.27;8.43;;;12.60;99.90;;;;;;5021268;28;20188;-86
2022/11/09 00:55:58;;;;;;;7.93;7.20;;;12.80;99.90;;;;;;5039479;28;20231;-86
2022/11/09 00:58:25;;;;;;;7.43;6.83;;;12.70;99.90;;;;;;5021474;28;20583;-86
2022/11/09 01:00:52;;;;;;;8.10;7.40;;;12.70;99.90;;;;;;5038934;28;20189;-85
2022/11/09 01:03:19;;;;;;;8.53;7.77;;;12.80;99.90;;;;;;5021723;28;20178;-85
2022/11/09 01:05:45;;;;;;;11.50;8.37;;;12.80;99.90;;;;;;5021798;28;20214;-84
2022/11/09 01:08:11;;;;;;;8.87;8.17;;;12.70;99.90;;;;;;5040952;28;20209;-86
2022/11/09 01:10:41;;;;;;;8.80;8.10;;;12.70;99.90;;;;;;5041557;28;20182;-85
2022/11/09 01:13:07;;;;;;;8.93;8.13;;;12.70;99.90;;;;;;5023124;28;20186;-84
2022/11/09 01:15:33;;;;;;;9.50;7.97;;;12.70;99.90;;;;;;5022874;28;20277;-84
2022/11/09 01:17:58;;;;;;;9.17;8.27;;;12.60;99.90;;;;;;5037246;28;20181;-85
2022/11/09 01:20:24;;;;;;;9.50;8.50;;;12.60;99.90;;;;;;5042468;28;20223;-86
2022/11/09 01:22:49;;;;;;;9.57;8.67;;;12.60;99.90;;;;;;5020084;28;20597;-85
2022/11/09 01:25:15;;;;;;;8.57;7.80;;;12.60;99.90;;;;;;5020391;28;20195;-85
2022/11/09 01:27:41;;;;;;;9.43;8.53;;;12.50;99.90;;;;;;5020873;28;20274;-86
2022/11/09 01:30:07;;;;;;;9.67;8.77;;;12.50;99.90;;;;;;5032303;28;20261;-85
2022/11/09 01:32:33;;;;;;;10.83;8.43;;;12.50;99.90;;;;;;5041097;28;20204;-87
2022/11/09 01:34:58;;;;;;;9.73;8.80;;;12.40;99.90;;;;;;5022184;28;20459;-86
2022/11/09 01:37:24;;;;;;;8.47;7.73;;;12.50;99.90;;;;;;5041017;28;20206;-86
2022/11/09 01:39:50;;;;;;;8.83;8.07;;;12.40;99.90;;;;;;5015015;28;20213;-87
2022/11/09 01:42:24;;;;;;;8.47;7.67;;;12.40;99.90;;;;;;5039512;28;20188;-88
2022/11/09 01:45:15;;;;;;;8.33;7.57;;;12.50;99.90;;;;;;5023738;28;20470;-87
2022/11/09 01:47:42;;;;;;;8.90;8.00;;;12.50;99.90;;;;;;5030914;28;20187;-86
2022/11/09 01:50:11;;;;;;;8.37;7.47;;;12.60;99.90;;;;;;5012363;28;20196;-85
2022/11/09 01:52:40;;;;;;;7.57;6.87;;;12.60;99.90;;;;;;5038239;28;20591;-87
2022/11/09 01:55:14;;;;;;;8.80;7.90;;;12.60;99.90;;;;;;5040744;28;20830;-86
2022/11/09 01:57:45;;;;;;;7.93;7.23;;;12.60;99.90;;;;;;5037331;28;20196;-88
2022/11/09 02:00:14;;;;;;;8.37;7.43;;;12.50;99.90;;;;;;5039006;28;20531;-87
2022/11/09 02:02:48;;;;;;;8.27;7.43;;;12.40;99.90;;;;;;5039095;28;20200;-86
2022/11/09 02:05:18;;;;;;;8.50;7.40;;;12.30;99.90;;;;;;5037010;28;20626;-86
2022/11/09 02:07:44;;;;;;;8.33;7.53;;;12.30;99.90;;;;;;5023819;28;20190;-86
2022/11/09 02:10:34;;;;;;;7.67;7.07;;;12.20;99.90;;;;;;5020647;28;20186;-85
2022/11/09 02:13:00;;;;;;;7.57;6.97;;;12.30;99.90;;;;;;5019832;28;20194;-86
2022/11/09 02:15:27;;;;;;;7.87;7.07;;;12.30;99.90;;;;;;5021983;28;20181;-87
2022/11/09 02:17:54;;;;;;;8.17;7.30;;;12.20;99.90;;;;;;5025126;28;20186;-89
2022/11/09 02:20:21;;;;;;;8.53;7.73;;;12.20;99.90;;;;;;5015303;28;20217;-88
2022/11/09 02:22:47;;;;;;;8.10;6.93;;;12.20;99.90;;;;;;5018037;28;20214;-89
2022/11/09 02:25:14;;;;;;;7.80;7.10;;;12.20;99.90;;;;;;5010356;28;20181;-88
2022/11/09 02:27:42;;;;;;;9.33;7.27;;;12.20;99.90;;;;;;5014375;28;20198;-88
2022/11/09 02:30:09;;;;;;;8.30;7.53;;;12.20;99.90;;;;;;5018665;28;20184;-89
2022/11/09 02:32:35;;;;;;;8.00;7.40;;;12.10;99.90;;;;;;5018980;28;20193;-88
2022/11/09 02:35:00;;;;;;;8.73;7.93;;;12.00;99.90;;;;;;5022535;28;20189;-87
2022/11/09 02:37:36;;;;;;;8.50;7.60;;;11.90;99.90;;;;;;5017491;28;20299;-87
2022/11/09 02:40:07;;;;;;;9.17;7.47;;;12.10;99.90;;;;;;5011267;28;20192;-88
2022/11/09 02:42:33;;;;;;;9.37;7.37;;;12.00;99.90;;;;;;5021191;28;20275;-86
2022/11/09 02:44:59;;;;;;;7.97;7.00;;;12.10;99.90;;;;;;5022088;28;20185;-86
2022/11/09 02:47:25;;;;;;;9.23;8.33;;;12.00;99.90;;;;;;5016624;28;20202;-88
2022/11/09 02:49:51;;;;;;;8.57;7.77;;;11.90;99.90;;;;;;5041421;28;20311;-87
2022/11/09 02:52:17;;;;;;;7.23;6.63;;;11.90;99.90;;;;;;5042191;28;20173;-86
2022/11/09 02:54:43;;;;;;;7.90;7.03;;;12.00;99.90;;;;;;5032709;28;20183;-86
2022/11/09 02:57:08;;;;;;;9.53;7.07;;;12.10;99.90;;;;;;5010899;28;20209;-90
2022/11/09 02:59:34;;;;;;;8.30;7.17;;;12.10;99.90;;;;;;5012552;28;20189;-88
2022/11/09 03:02:00;;;;;;;7.37;6.60;;;12.20;99.90;;;;;;5021975;28;20726;-87
2022/11/09 03:04:26;;;;;;;9.10;8.23;;;12.10;99.90;;;;;;5037848;28;20192;-86
2022/11/09 03:06:52;;;;;;;8.00;7.20;;;12.00;99.90;;;;;;5024134;28;20211;-87
2022/11/09 03:09:18;;;;;;;7.40;6.47;;;12.00;99.90;;;;;;5046202;28;20215;-86
2022/11/09 03:11:44;;;;;;;7.53;6.80;;;12.10;99.90;;;;;;5028432;28;20577;-86
2022/11/09 03:14:10;;;;;;;7.20;6.20;;;12.10;99.90;;;;;;5045976;28;20208;-88
2022/11/09 03:16:37;;;;;;;6.40;5.80;;;12.30;99.90;;;;;;5045471;28;20216;-88
2022/11/09 03:19:03;;;;;;;6.53;5.80;;;12.40;99.90;;;;;;5028560;28;20179;-86
2022/11/09 03:21:29;;;;;;;7.40;5.97;;;12.40;99.90;;;;;;5028437;28;20189;-87
2022/11/09 03:23:55;;;;;;;7.63;6.93;;;12.40;99.90;;;;;;5034476;28;20169;-87
2022/11/09 03:26:24;;;;;;;8.17;7.47;;;12.30;99.90;;;;;;5073967;22;20241;-92
2022/11/09 03:28:49;;;;;;;7.30;6.70;;;12.30;99.90;;;;;;5026175;28;20221;-91
2022/11/09 03:31:15;;;;;;;8.83;6.80;;;12.30;99.90;;;;;;5026023;28;20185;-92
2022/11/09 03:33:41;;;;;;;6.90;6.13;;;12.30;99.90;;;;;;5016351;28;20194;-91
2022/11/09 03:36:09;;;;;;;6.97;5.77;;;12.40;99.90;;;;;;5012693;28;20245;-92
2022/11/09 03:38:35;;;;;;;5.90;5.40;;;12.40;99.90;;;;;;5028987;28;20253;-92
2022/11/09 03:41:01;;;;;;;6.13;5.60;;;12.40;99.90;;;;;;5021175;28;20213;-92
2022/11/09 03:43:28;;;;;;;5.93;5.47;;;12.60;99.90;;;;;;5002179;28;20187;-92
2022/11/09 03:45:54;;;;;;;6.37;5.60;;;12.60;99.90;;;;;;5010115;28;20212;-92
2022/11/09 03:48:20;;;;;;;5.93;5.37;;;12.60;99.90;;;;;;5023888;28;20307;-92
2022/11/09 03:50:46;;;;;;;5.93;5.47;;;12.50;99.90;;;;;;5009603;28;20200;-92
2022/11/09 03:53:12;;;;;;;6.23;5.67;;;12.60;99.90;;;;;;5021732;28;20182;-92
2022/11/09 03:55:40;;;;;;;6.23;5.70;;;12.40;99.90;;;;;;5025995;28;20211;-92
2022/11/09 03:58:08;;;;;;;6.40;5.80;;;12.40;99.90;;;;;;5028708;28;20195;-92
2022/11/09 04:00:34;;;;;;;6.37;5.40;;;12.20;99.90;;;;;;5015537;28;20195;-92
2022/11/09 04:03:01;;;;;;;5.53;5.03;;;12.30;99.90;;;;;;5011215;28;20190;-92
2022/11/09 04:05:29;;;;;;;6.07;5.30;;;12.30;99.90;;;;;;5034510;28;20475;-92
2022/11/09 04:07:56;;;;;;;5.40;4.90;;;12.20;99.90;;;;;;5030843;28;20193;-92
2022/11/09 04:10:24;;;;;;;5.10;4.60;;;12.30;99.90;;;;;;5028965;28;20301;-92
2022/11/09 04:12:50;;;;;;;5.23;4.57;;;12.30;99.90;;;;;;5030345;28;20189;-92
2022/11/09 04:15:18;;;;;;;4.87;4.30;;;12.30;99.90;;;;;;5030872;28;20202;-92
2022/11/09 04:17:43;;;;;;;4.40;4.10;;;12.30;99.90;;;;;;5023387;28;20240;-91
2022/11/09 04:20:10;;;;;;;4.40;4.10;;;12.40;99.90;;;;;;5034223;28;20198;-93
2022/11/09 04:25:21;;;;;;;4.20;3.90;;;12.40;99.90;;;;;;4392431;26;20794;-91
2022/11/09 04:28:13;;;;;;;4.30;3.40;;;12.40;99.90;;;;;;5053557;28;20261;-90
2022/11/09 04:30:48;;;;;;;3.87;3.50;;;12.40;99.90;;;;;;5036532;28;20181;-91
2022/11/09 04:33:47;;;;;;;4.43;4.10;;;12.40;99.90;;;;;;5050157;28;20189;-91
2022/11/09 04:36:40;;;;;;;5.20;4.70;;;12.50;99.90;;;;;;5025297;28;20256;-90
2022/11/09 04:39:12;;;;;;;5.90;3.17;;;12.50;99.90;;;;;;5100146;22;20253;-88
2022/11/09 04:41:43;;;;;;;4.20;3.27;;;12.50;99.90;;;;;;5023844;28;20210;-88
2022/11/09 04:44:49;;;;;;;4.30;3.90;;;12.50;99.90;;;;;;5036685;28;20606;-87
2022/11/09 04:54:22;;;;;;;3.03;2.73;;;12.50;99.90;;;;;;5045612;28;20157;-86
2022/11/09 05:03:58;;;;;;;2.80;2.60;;;12.60;99.90;;;;;;4972201;28;20207;-85
2022/11/09 05:06:43;;;;;;;4.53;2.67;;;12.60;99.90;;;;;;4967784;28;20235;-85
2022/11/09 05:20:07;;;;;;;2.50;2.30;;;12.60;99.90;;;;;;4945086;29;20219;-86
2022/11/09 05:26:52;;;;;;;2.93;2.73;;;12.90;99.90;;;;;;4868493;29;20295;-84
2022/11/09 05:29:38;;;;;;;2.90;2.57;;;13.00;99.90;;;;;;4856359;29;20224;-86
2022/11/09 05:32:22;;;;;;;3.83;3.47;;;13.10;99.90;;;;;;4881845;29;20191;-87
2022/11/09 05:35:13;;;;;;;;;;;;;;;;;;;;;
2022/11/09 05:38:11;;;;;;;3.33;3.13;;;12.90;99.90;;;;;;5002021;28;20303;-89
2022/11/09 05:41:27;;;;;;;3.30;2.80;;;13.00;99.90;;;;;;5043883;28;20202;-89
2022/11/09 05:58:09;;;;;;;3.90;2.93;;;12.90;99.90;;;;;;5005807;28;20293;-88
2022/11/09 06:19:22;;;;;;;2.37;2.17;;;12.50;99.90;;;;;;5317942;22;20271;-87
2022/11/09 06:21:48;;;;;;;2.20;2.00;;;12.50;99.90;;;;;;5080533;28;20172;-89
2022/11/09 06:24:14;;;;;;;2.20;2.00;;;12.50;99.90;;;;;;5062922;28;20177;-87
2022/11/09 06:26:39;;;;;;;2.87;2.10;;;12.60;99.90;;;;;;5062170;28;20207;-87
2022/11/09 06:29:05;;;;;;;2.93;2.40;;;12.40;99.90;;;;;;5080471;28;20198;-87
2022/11/09 06:31:31;;;;;;;2.27;2.07;;;12.40;99.90;;;;;;5068557;28;20178;-91
2022/11/09 06:33:57;;;;;;;2.80;2.00;;;12.40;99.90;;;;;;5098997;28;20166;-87
2022/11/09 06:36:23;;;;;;;1.83;1.63;;;12.40;99.90;;;;;;5081887;28;20184;-88
2022/11/09 06:38:50;;;;;;;2.03;1.70;;;12.30;99.90;;;;;;5078412;28;20221;-87
2022/11/09 06:41:16;;;;;;;2.07;1.90;;;12.40;99.90;;;;;;5079961;28;20205;-88
2022/11/09 06:43:43;;;;;;;1.80;1.70;;;12.40;99.90;;;;;;5079461;28;20196;-87
2022/11/09 06:46:11;;;;;;;2.83;1.70;;;12.40;99.90;;;;;;5060699;28;20216;-87
2022/11/09 06:48:38;;;;;;;2.60;1.90;;;12.50;99.90;;;;;;5078440;28;20205;-87
2022/11/09 06:51:05;;;;;;;4.00;2.30;;;12.40;99.90;;;;;;5078003;28;20223;-87
2022/11/09 06:53:33;;;;;;;2.40;2.20;;;12.40;99.90;;;;;;5079011;28;20176;-87
2022/11/09 06:56:01;;;;;;;4.00;3.40;;;12.30;99.90;;;;;;5078237;28;20200;-87
2022/11/09 06:58:27;;;;;;;4.70;3.93;;;12.40;99.90;;;;;;5074830;28;20192;-87
2022/11/09 07:00:53;;;;;;;4.00;3.60;;;12.40;99.90;;;;;;5046293;28;20189;-87
2022/11/09 07:03:20;;;;;;;4.57;4.17;;;12.40;99.90;;;;;;5064089;28;20195;-88
2022/11/09 07:05:47;;;;;;;3.83;3.20;;;12.30;99.90;;;;;;5059549;28;20235;-87
2022/11/09 07:08:14;;;;;;;2.63;2.43;;;12.20;99.90;;;;;;5061244;28;20215;-88
2022/11/09 07:10:40;;;;;;;2.13;1.97;;;12.20;99.90;;;;;;5062068;28;20203;-88
2022/11/09 07:13:06;;;;;;;2.20;2.10;;;12.10;99.90;;;;;;5076669;28;20179;-89
2022/11/09 07:15:33;;;;;;;2.13;2.00;;;12.10;99.90;;;;;;5079700;28;20275;-88
2022/11/09 07:18:00;;;;;;;2.30;2.20;;;12.10;99.90;;;;;;5070591;28;20192;-87
2022/11/09 07:20:26;;;;;;;2.57;2.37;;;12.10;99.90;;;;;;5059083;28;20175;-87
2022/11/09 07:22:52;;;;;;;2.30;2.07;;;12.10;99.90;;;;;;5075770;28;20175;-87
2022/11/09 07:25:19;;;;;;;2.80;2.60;;;12.20;99.90;;;;;;5077750;28;20205;-87
2022/11/09 07:27:45;;;;;;;4.30;2.30;;;12.30;99.90;;;;;;5076284;28;20187;-87
2022/11/09 07:30:11;;;;;;;2.60;2.40;;;12.30;99.90;;;;;;5075508;28;20198;-88
2022/11/09 07:32:38;;;;;;;4.40;2.53;;;12.50;99.90;;;;;;5074734;28;20658;-88
2022/11/09 07:35:04;;;;;;;3.30;2.50;;;12.50;99.90;;;;;;5059604;28;20188;-89
2022/11/09 07:37:30;;;;;;;3.47;2.70;;;12.50;99.90;;;;;;5055387;28;20282;-88
2022/11/09 07:39:56;;;;;;;2.87;2.67;;;12.40;99.90;;;;;;5055963;28;20244;-88
2022/11/09 07:42:22;;;;;;;2.83;2.63;;;12.50;99.90;;;;;;5055870;28;20246;-88
2022/11/09 07:44:48;;;;;;;2.80;2.60;;;12.50;99.90;;;;;;5055603;28;20176;-88
2022/11/09 07:47:15;;;;;;;2.93;2.73;;;12.40;99.90;;;;;;5055224;28;20200;-88
2022/11/09 07:49:41;;;;;;;4.33;2.57;;;12.50;99.90;;;;;;5059327;28;20214;-87
2022/11/09 07:52:07;;;;;;;3.63;2.50;;;12.60;99.90;;;;;;5059988;28;20263;-87
2022/11/09 07:54:32;;;;;;;2.53;2.33;;;12.60;99.90;;;;;;5055479;28;20220;-88
2022/11/09 07:56:58;;;;;;;2.77;2.57;;;12.70;99.90;;;;;;5056175;28;20274;-89
2022/11/09 07:59:34;;;;;;;4.53;2.90;;;12.90;99.90;;;;;;5056989;28;20192;-88
2022/11/09 08:02:10;;;;;;;5.13;3.40;;;13.00;99.90;;;;;;5042184;28;20189;-88
2022/11/09 08:04:38;;;;;;;4.07;2.80;;;13.10;99.90;;;;;;5041033;28;20275;-88
2022/11/09 08:07:07;;;;;;;3.13;2.70;;;13.10;99.90;;;;;;5058927;28;20250;-90
2022/11/09 08:09:38;;;;;;;3.70;3.00;;;13.10;99.90;;;;;;5056336;28;20300;-88
2022/11/09 08:12:07;;;;;;;3.87;2.93;;;13.20;99.90;;;;;;5078733;28;20632;-88
2022/11/09 08:14:35;;;;;;;3.10;2.90;;;13.20;99.90;;;;;;5061729;28;20184;-88
2022/11/09 08:17:06;;;;;;;3.70;3.40;;;13.20;99.90;;;;;;5062253;28;20196;-89
2022/11/09 08:19:39;;;;;;;4.03;2.83;;;13.30;99.90;;;;;;5062416;28;20199;-88
2022/11/09 08:22:05;;;;;;;4.27;2.83;;;13.20;99.90;;;;;;5068918;28;20201;-90
2022/11/09 08:24:31;;;;;;;3.50;3.20;;;13.20;99.90;;;;;;5041774;28;20181;-89
2022/11/09 08:26:57;;;;;;;4.40;2.90;;;13.30;99.90;;;;;;5059495;28;20197;-90
2022/11/09 08:29:23;;;;;;;3.87;2.77;;;13.40;99.90;;;;;;5059390;28;20243;-89
2022/11/09 08:32:15;;;;;;;3.13;2.93;;;13.50;99.90;;;;;;5042501;28;20180;-88
2022/11/09 08:34:47;;;;;;;4.23;3.17;;;13.60;99.90;;;;;;5043467;28;20175;-87
2022/11/09 08:37:14;;;;;;;3.53;3.17;;;13.60;99.90;;;;;;5059742;28;20567;-87
2022/11/09 08:39:41;;;;;;;3.03;2.83;;;13.70;99.90;;;;;;5042063;28;20181;-87
2022/11/09 08:42:09;;;;;;;3.00;2.80;;;13.60;99.90;;;;;;5068935;28;20187;-89
2022/11/09 08:44:38;;;;;;;4.23;3.00;;;13.70;99.90;;;;;;5082685;28;20183;-88
2022/11/09 08:47:06;;;;;;;3.20;3.00;;;13.70;99.90;;;;;;5058867;28;20214;-94
2022/11/09 09:33:46;;;;;;;;;;;;;;;;;;;;;
2022/11/09 09:49:33;;;;;;;2.90;2.70;;;14.80;99.90;;;;;;5020549;26;20238;-88
2022/11/09 09:52:11;;;;;;;2.83;2.63;;;14.60;99.90;;;;;;5042276;28;20780;-88
2022/11/09 09:54:51;;;;;;;2.93;2.40;;;14.60;99.90;;;;;;5022543;28;20179;-88
2022/11/09 09:57:22;;;;;;;2.87;2.63;;;14.50;99.90;;;;;;5035422;28;20208;-89
2022/11/09 09:59:56;;;;;;;2.53;2.33;;;14.60;99.90;;;;;;5024895;28;20645;-89
2022/11/09 10:02:30;;;;;;;2.30;2.20;;;14.80;99.90;;;;;;5043370;28;20158;-89
2022/11/09 10:04:59;;;;;;;2.33;2.10;;;14.90;99.90;;;;;;5043620;28;20182;-88
2022/11/09 10:07:35;;;;;;;4.90;3.67;;;15.10;99.90;;;;;;5041664;28;20251;-88
2022/11/09 10:10:29;;;;;;;5.20;2.50;;;15.30;99.90;;;;;;5042170;28;20224;-88
2022/11/09 10:13:07;;;;;;;2.60;2.40;;;15.40;99.90;;;;;;5043377;28;20191;-88
2022/11/09 10:15:57;;;;;;;3.00;2.70;;;15.20;99.90;;;;;;5043000;28;20219;-90
2022/11/09 10:18:31;;;;;;;2.83;2.57;;;15.40;99.90;;;;;;5034657;28;20241;-88
2022/11/09 10:21:07;;;;;;;2.50;2.30;;;15.30;99.90;;;;;;5022402;28;20201;-88
2022/11/09 10:23:50;;;;;;;6.17;2.93;;;15.30;99.90;;;;;;5051333;28;20191;-87
2022/11/09 10:26:48;;;;;;;2.47;2.27;;;15.30;99.90;;;;;;5042259;28;20295;-87
2022/11/09 10:29:23;;;;;;;5.77;2.33;;;15.30;99.90;;;;;;5041868;28;20222;-87
2022/11/09 10:31:52;;;;;;;2.50;2.30;;;15.20;99.90;;;;;;5060405;28;20164;-87
2022/11/09 10:34:27;;;;;;;3.03;2.57;;;15.40;99.90;;;;;;5042674;28;20547;-86
2022/11/09 10:37:09;;;;;;;2.63;2.43;;;15.40;99.90;;;;;;5045101;28;20259;-86
2022/11/09 10:39:45;;;;;;;2.83;2.63;;;15.50;99.90;;;;;;5038980;28;20188;-86
2022/11/09 10:42:11;;;;;;;4.70;3.40;;;15.40;99.90;;;;;;5039149;28;20173;-86
2022/11/09 10:44:37;;;;;;;3.30;2.60;;;15.30;99.90;;;;;;5039358;28;20184;-86
2022/11/09 10:47:07;;;;;;;2.47;2.23;;;15.30;99.90;;;;;;5029207;28;20228;-87
2022/11/09 10:49:39;;;;;;;2.23;2.10;;;15.30;99.90;;;;;;5045070;28;20217;-86
2022/11/09 10:52:39;;;;;;;4.30;2.80;;;15.20;99.90;;;;;;5028608;28;20244;-86
2022/11/09 10:55:27;;;;;;;2.97;2.67;;;15.40;99.90;;;;;;5042811;28;20253;-86
2022/11/09 10:58:03;;;;;;;3.20;2.43;;;15.40;99.90;;;;;;5043897;28;20197;-86
2022/11/09 11:00:29;;;;;;;4.60;2.67;;;15.60;99.90;;;;;;5060962;22;20224;-93
2022/11/09 11:02:55;;;;;;;3.43;2.97;;;15.80;99.90;;;;;;5036611;28;20232;-93
2022/11/09 11:05:24;;;;;;;3.37;2.77;;;15.80;99.90;;;;;;5034092;28;20229;-92
2022/11/09 11:07:50;;;;;;;2.70;2.50;;;15.90;99.90;;;;;;5034879;28;20228;-93
2022/11/09 11:10:16;;;;;;;2.90;2.57;;;15.80;99.90;;;;;;5035034;28;20236;-93
2022/11/09 11:12:45;;;;;;;3.73;2.70;;;15.90;99.90;;;;;;5033655;28;20218;-94
2022/11/09 11:15:34;;;;;;;2.83;2.63;;;15.90;99.90;;;;;;5015638;28;20200;-92
2022/11/09 11:18:13;;;;;;;3.00;2.80;;;16.00;99.90;;;;;;5031995;28;20218;-93
2022/11/09 11:20:39;;;;;;;2.60;2.40;;;15.90;99.90;;;;;;5026200;28;20244;-93
2022/11/09 11:23:12;;;;;;;3.13;2.60;;;15.90;99.90;;;;;;5034701;28;20297;-93
2022/11/09 11:26:01;;;;;;;3.30;2.80;;;15.90;99.90;;;;;;5046325;28;20263;-93
2022/11/09 11:28:35;;;;;;;3.50;2.80;;;15.80;99.90;;;;;;5044035;28;20266;-93
2022/11/09 11:31:02;;;;;;;2.70;2.50;;;15.70;99.90;;;;;;5039312;28;20272;-92
2022/11/09 11:33:33;;;;;;;2.80;2.60;;;15.70;99.90;;;;;;5027181;28;20218;-93
2022/11/09 11:36:08;;;;;;;2.70;2.50;;;15.70;99.90;;;;;;5041039;28;20210;-93
2022/11/09 11:38:42;;;;;;;3.10;2.80;;;15.90;99.90;;;;;;5032289;28;20601;-93
2022/11/09 11:41:16;;;;;;;2.80;2.60;;;16.00;99.90;;;;;;5012312;28;20240;-93
2022/11/09 11:44:19;;;;;;;2.83;2.53;;;15.90;99.90;;;;;;5030751;28;20204;-93
2022/11/09 11:46:48;;;;;;;2.93;2.70;;;15.80;99.90;;;;;;5012284;28;20192;-93
2022/11/09 11:49:41;;;;;;;4.23;3.10;;;15.90;99.90;;;;;;5031377;28;20259;-93
2022/11/09 11:52:38;;;;;;;3.20;2.90;;;16.10;99.90;;;;;;5043978;28;20208;-93
2022/11/09 11:55:23;;;;;;;2.83;2.63;;;16.00;99.90;;;;;;5016704;28;20190;-93
2022/11/09 11:57:51;;;;;;;2.97;2.77;;;15.80;99.90;;;;;;5018845;28;20185;-93
2022/11/09 12:00:21;;;;;;;6.37;3.30;;;15.90;99.90;;;;;;5015201;28;20212;-92
2022/11/09 12:02:56;;;;;;;5.43;2.97;;;15.90;99.90;;;;;;5034434;28;20458;-93
2022/11/09 12:05:40;;;;;;;2.80;2.60;;;15.80;99.90;;;;;;5033035;28;20189;-92
2022/11/09 12:08:19;;;;;;;3.93;2.80;;;15.70;99.90;;;;;;5019959;28;20193;-93
2022/11/09 12:11:07;;;;;;;3.77;3.27;;;15.50;99.90;;;;;;5009667;28;20208;-93
2022/11/09 12:14:00;;;;;;;3.57;3.27;;;15.40;99.90;;;;;;5027304;28;20242;-93
2022/11/09 12:16:50;;;;;;;3.30;3.10;;;15.50;99.90;;;;;;5032511;28;20208;-92
2022/11/09 12:19:19;;;;;;;4.03;3.63;;;15.60;99.90;;;;;;5034679;28;20240;-92
2022/11/09 12:22:12;;;;;;;3.53;3.10;;;15.60;99.90;;;;;;5042432;28;20284;-93
2022/11/09 12:24:59;;;;;;;3.80;3.50;;;15.50;99.90;;;;;;5040281;28;20193;-92
2022/11/09 12:27:47;;;;;;;5.27;3.60;;;15.50;99.90;;;;;;5028077;28;20185;-93
2022/11/09 12:30:20;;;;;;;3.70;3.33;;;15.50;99.90;;;;;;5021233;28;20252;-93
2022/11/09 12:32:54;;;;;;;4.47;3.70;;;15.50;99.90;;;;;;5025549;28;20204;-92
2022/11/09 12:35:32;;;;;;;3.60;3.30;;;15.50;99.90;;;;;;5035538;28;20207;-93
2022/11/09 12:38:15;;;;;;;3.97;3.57;;;15.60;99.90;;;;;;5035633;28;20208;-93
2022/11/09 12:40:47;;;;;;;4.00;3.70;;;15.60;99.90;;;;;;5040651;28;20203;-92
2022/11/09 12:43:28;;;;;;;3.60;3.30;;;15.60;99.90;;;;;;5039075;28;20210;-92
2022/11/09 12:46:02;;;;;;;3.93;3.53;;;15.60;99.90;;;;;;5011938;28;20219;-93
2022/11/09 12:48:31;;;;;;;3.87;3.50;;;15.50;99.90;;;;;;5023335;28;20212;-92
2022/11/09 12:50:58;;;;;;;4.27;3.67;;;15.50;99.90;;;;;;5034051;28;20181;-93
2022/11/09 12:53:28;;;;;;;3.60;3.30;;;15.60;99.90;;;;;;5031798;28;20260;-93
2022/11/09 12:56:35;;;;;;;5.33;3.90;;;15.40;99.90;;;;;;5028623;28;20212;-90
2022/11/09 12:59:48;;;;;;;3.70;3.40;;;15.40;99.90;;;;;;4991243;28;20193;-92
2022/11/09 13:02:29;;;;;;;4.13;3.27;;;15.30;99.90;;;;;;4925630;29;20628;-92
2022/11/09 13:04:57;;;;;;;4.73;3.63;;;15.40;99.90;;;;;;4918847;29;20189;-92
2022/11/09 13:07:48;;;;;;;3.77;3.47;;;15.40;99.90;;;;;;5000801;28;20223;-92
2022/11/09 13:10:40;;;;;;;4.50;3.30;;;15.40;99.90;;;;;;5031046;28;20232;-91
2022/11/09 13:13:18;;;;;;;4.83;3.50;;;15.30;99.90;;;;;;5043922;28;20267;-93
2022/11/09 13:16:07;;;;;;;3.87;3.50;;;15.30;99.90;;;;;;5045546;28;20193;-93
2022/11/09 13:18:36;;;;;;;3.60;3.30;;;15.50;99.90;;;;;;5022480;28;20196;-92
2022/11/09 13:21:20;;;;;;;4.80;3.67;;;15.40;99.90;;;;;;5024488;28;20675;-92
2022/11/09 13:23:50;;;;;;;3.80;3.50;;;15.40;99.90;;;;;;5036199;28;20205;-93
2022/11/09 13:26:36;;;;;;;4.10;3.70;;;15.50;99.90;;;;;;5025741;28;20219;-93
2022/11/09 13:29:17;;;;;;;4.10;3.70;;;15.50;99.90;;;;;;5021724;28;20590;-94
2022/11/09 13:32:11;;;;;;;6.53;3.80;;;15.40;99.90;;;;;;5034517;28;20206;-93
2022/11/09 13:34:50;;;;;;;3.87;3.47;;;15.40;99.90;;;;;;5019966;28;20210;-93
2022/11/09 13:37:40;;;;;;;4.93;3.37;;;15.30;99.90;;;;;;5035417;28;20212;-92
2022/11/09 13:40:47;;;;;;;4.30;3.90;;;15.40;99.90;;;;;;5012700;28;20204;-93
2022/11/09 13:43:35;;;;;;;4.73;4.17;;;15.40;99.90;;;;;;5010875;28;20289;-93
2022/11/09 13:46:37;;;;;;;4.20;3.80;;;15.30;99.90;;;;;;5038898;28;20200;-93
2022/11/09 13:49:49;;;;;;;3.93;3.50;;;15.10;99.90;;;;;;5062000;22;20267;-91
2022/11/09 13:52:53;;;;;;;4.40;4.00;;;15.10;99.90;;;;;;5030124;28;20196;-91
2022/11/09 13:55:49;;;;;;;4.90;4.07;;;15.00;99.90;;;;;;5048712;28;20219;-90
2022/11/09 13:58:54;;;;;;;5.97;4.10;;;14.90;99.90;;;;;;5049667;28;20189;-91
2022/11/09 14:01:40;;;;;;;5.40;3.97;;;14.90;99.90;;;;;;5029639;28;20189;-91
2022/11/09 14:04:40;;;;;;;4.50;4.10;;;14.80;99.90;;;;;;5037663;28;20187;-90
2022/11/09 14:07:29;;;;;;;4.40;4.00;;;14.90;99.90;;;;;;5040461;28;20249;-91
2022/11/09 14:10:08;;;;;;;6.57;4.40;;;15.00;99.90;;;;;;5054979;28;20212;-90
2022/11/09 14:13:02;;;;;;;5.40;4.17;;;15.00;99.90;;;;;;5044583;28;20185;-90
2022/11/09 14:15:43;;;;;;;4.97;4.50;;;15.00;99.90;;;;;;5039156;28;20204;-93
2022/11/09 14:18:37;;;;;;;4.70;4.30;;;14.90;99.90;;;;;;5040212;28;20192;-92
2022/11/09 14:21:38;;;;;;;4.43;4.03;;;14.80;99.90;;;;;;5042625;28;20165;-90
2022/11/09 14:24:15;;;;;;;5.50;4.40;;;14.80;99.90;;;;;;5032671;28;20173;-91
2022/11/09 14:27:00;;;;;;;5.13;4.47;;;14.80;99.90;;;;;;5043407;28;20217;-91
2022/11/09 14:29:31;;;;;;;4.33;3.93;;;14.70;99.90;;;;;;5036749;28;20284;-91
2022/11/09 14:32:17;;;;;;;5.03;4.20;;;14.70;99.90;;;;;;5025991;28;20274;-91
2022/11/09 14:34:46;;;;;;;4.77;4.37;;;14.60;99.90;;;;;;5024187;28;20190;-91
2022/11/09 14:37:18;;;;;;;5.83;4.30;;;14.50;99.90;;;;;;5042131;28;20189;-91
2022/11/09 14:40:01;;;;;;;5.27;4.77;;;14.60;99.90;;;;;;5041858;28;20191;-91
2022/11/09 14:42:27;;;;;;;5.03;4.53;;;14.40;99.90;;;;;;5020417;28;20195;-91
2022/11/09 14:45:05;;;;;;;5.37;4.40;;;14.40;99.90;;;;;;5037232;28;20214;-92
2022/11/09 14:47:43;;;;;;;4.97;4.33;;;14.40;99.90;;;;;;5029036;28;20194;-91
2022/11/09 14:50:23;;;;;;;6.13;4.10;;;14.50;99.90;;;;;;5024428;28;20611;-91
2022/11/09 14:52:52;;;;;;;5.70;4.83;;;14.50;99.90;;;;;;5023260;28;20195;-91
2022/11/09 14:55:29;;;;;;;5.17;4.77;;;14.60;99.90;;;;;;5024836;28;20223;-91
2022/11/09 14:57:55;;;;;;;5.13;4.63;;;14.40;99.90;;;;;;5040045;28;20186;-91
2022/11/09 15:00:36;;;;;;;5.07;4.60;;;14.30;99.90;;;;;;5023003;28;20192;-92
2022/11/09 15:03:30;;;;;;;5.37;4.33;;;14.40;99.90;;;;;;5022828;28;20192;-92
2022/11/09 15:06:23;;;;;;;4.57;4.17;;;14.40;99.90;;;;;;4997315;28;20241;-91
2022/11/09 15:09:06;;;;;;;8.37;4.53;;;14.40;99.90;;;;;;5026482;28;20288;-91
2022/11/09 15:11:38;;;;;;;4.93;4.37;;;14.30;99.90;;;;;;5018375;28;20883;-91
2022/11/09 15:14:26;;;;;;;4.63;4.23;;;14.30;99.90;;;;;;5013928;28;20198;-91
2022/11/09 15:17:26;;;;;;;5.50;4.77;;;14.30;99.90;;;;;;5020297;28;20203;-90
2022/11/09 15:19:57;;;;;;;5.57;4.80;;;14.20;99.90;;;;;;5000002;28;20214;-91
2022/11/09 15:23:12;;;;;;;5.20;4.77;;;14.20;99.90;;;;;;5019195;28;20253;-91
2022/11/09 15:25:54;;;;;;;5.80;5.30;;;14.10;99.90;;;;;;5036604;28;20211;-90